Terminal Aerodrome Forecast
Issued by NWS

Home | Current Version | Previous Version | Text Only | Print | Product List | Glossary On
Versions: 1 2 3 4 5 6 7 8 9 10 11 12
000
FTUS45 KPSR 092320
TAFIWA
TAF
KIWA 092320Z 1000/1024 30003KT P6SM BKN200
     FM100400 11004KT P6SM SCT250
     FM102100 29004KT P6SM BKN250
      AMD LTD TO CLD VIS AND WIND 1003/1013=

USA.gov is the U.S. government's official web portal to all federal, state and local government web resources and services.